sensor_id;sensor_type;location;lat;lon;timestamp;temperature;humidity
15564;DHT22;7883;52.554;13.364;2023-05-07T00:02:07;9.70;99.90
15564;DHT22;7883;52.554;13.364;2023-05-07T00:04:34;9.70;99.90
15564;DHT22;7883;52.554;13.364;2023-05-07T00:07:03;9.70;99.90
15564;DHT22;7883;52.554;13.364;2023-05-07T00:09:31;9.60;99.90
15564;DHT22;7883;52.554;13.364;2023-05-07T00:11:58;9.70;99.90
15564;DHT22;7883;52.554;13.364;2023-05-07T00:14:25;9.70;99.90
15564;DHT22;7883;52.554;13.364;2023-05-07T00:16:52;9.70;99.90
15564;DHT22;7883;52.554;13.364;2023-05-07T00:19:19;9.70;99.90
15564;DHT22;7883;52.554;13.364;2023-05-07T00:21:46;9.80;99.90
15564;DHT22;7883;52.554;13.364;2023-05-07T00:24:13;9.80;99.90
15564;DHT22;7883;52.554;13.364;2023-05-07T00:26:41;9.80;99.90
15564;DHT22;7883;52.554;13.364;2023-05-07T00:29:08;9.70;99.90
15564;DHT22;7883;52.554;13.364;2023-05-07T00:31:35;9.70;99.90
15564;DHT22;7883;52.554;13.364;2023-05-07T00:34:02;9.70;99.90
15564;DHT22;7883;52.554;13.364;2023-05-07T00:36:29;9.60;99.90
15564;DHT22;7883;52.554;13.364;2023-05-07T00:38:58;9.70;99.90
15564;DHT22;7883;52.554;13.364;2023-05-07T00:41:25;9.70;99.90
15564;DHT22;7883;52.554;13.364;2023-05-07T00:43:54;9.70;99.90
15564;DHT22;7883;52.554;13.364;2023-05-07T00:46:21;9.70;99.90
15564;DHT22;7883;52.554;13.364;2023-05-07T00:48:48;9.80;99.90
15564;DHT22;7883;52.554;13.364;2023-05-07T00:51:16;9.80;99.90
15564;DHT22;7883;52.554;13.364;2023-05-07T00:53:44;9.80;99.90
15564;DHT22;7883;52.554;13.364;2023-05-07T00:56:11;9.80;99.90
15564;DHT22;7883;52.554;13.364;2023-05-07T00:58:38;9.70;99.90
15564;DHT22;7883;52.554;13.364;2023-05-07T01:01:06;9.80;99.90
15564;DHT22;7883;52.554;13.364;2023-05-07T01:03:33;9.70;99.90
15564;DHT22;7883;52.554;13.364;2023-05-07T01:06:01;9.80;99.90
15564;DHT22;7883;52.554;13.364;2023-05-07T01:08:28;9.60;99.90
15564;DHT22;7883;52.554;13.364;2023-05-07T01:10:56;9.50;99.90
15564;DHT22;7883;52.554;13.364;2023-05-07T01:13:24;9.60;99.90
15564;DHT22;7883;52.554;13.364;2023-05-07T01:15:51;9.60;99.90
15564;DHT22;7883;52.554;13.364;2023-05-07T01:18:20;9.70;99.90
15564;DHT22;7883;52.554;13.364;2023-05-07T01:20:47;9.70;99.90
15564;DHT22;7883;52.554;13.364;2023-05-07T01:23:16;9.80;99.90
15564;DHT22;7883;52.554;13.364;2023-05-07T01:25:51;9.80;99.90
15564;DHT22;7883;52.554;13.364;2023-05-07T01:28:18;9.90;99.90
15564;DHT22;7883;52.554;13.364;2023-05-07T01:30:48;9.90;99.90
15564;DHT22;7883;52.554;13.364;2023-05-07T01:33:19;9.90;99.90
15564;DHT22;7883;52.554;13.364;2023-05-07T01:35:49;9.90;99.90
15564;DHT22;7883;52.554;13.364;2023-05-07T01:38:18;9.90;99.90
15564;DHT22;7883;52.554;13.364;2023-05-07T01:40:45;9.70;99.90
15564;DHT22;7883;52.554;13.364;2023-05-07T01:43:12;9.70;99.90
15564;DHT22;7883;52.554;13.364;2023-05-07T01:45:40;9.60;99.90
15564;DHT22;7883;52.554;13.364;2023-05-07T01:48:09;9.70;99.90
15564;DHT22;7883;52.554;13.364;2023-05-07T01:50:37;9.70;99.90
15564;DHT22;7883;52.554;13.364;2023-05-07T01:53:05;9.60;99.90
15564;DHT22;7883;52.554;13.364;2023-05-07T01:55:36;9.50;99.90
15564;DHT22;7883;52.554;13.364;2023-05-07T01:58:03;9.50;99.90
15564;DHT22;7883;52.554;13.364;2023-05-07T02:00:30;9.60;99.90
15564;DHT22;7883;52.554;13.364;2023-05-07T02:02:57;9.70;99.90
15564;DHT22;7883;52.554;13.364;2023-05-07T02:05:24;9.70;99.90
15564;DHT22;7883;52.554;13.364;2023-05-07T02:07:51;9.60;99.90
15564;DHT22;7883;52.554;13.364;2023-05-07T02:10:18;9.60;99.90
15564;DHT22;7883;52.554;13.364;2023-05-07T02:12:46;9.60;99.90
15564;DHT22;7883;52.554;13.364;2023-05-07T02:15:13;9.40;99.90
15564;DHT22;7883;52.554;13.364;2023-05-07T02:17:58;9.40;99.90
15564;DHT22;7883;52.554;13.364;2023-05-07T02:20:27;9.50;99.90
15564;DHT22;7883;52.554;13.364;2023-05-07T02:22:54;9.70;99.90
15564;DHT22;7883;52.554;13.364;2023-05-07T02:25:21;9.70;99.90
15564;DHT22;7883;52.554;13.364;2023-05-07T02:27:50;9.70;99.90
15564;DHT22;7883;52.554;13.364;2023-05-07T02:30:18;9.70;99.90
15564;DHT22;7883;52.554;13.364;2023-05-07T02:32:46;9.60;99.90
15564;DHT22;7883;52.554;13.364;2023-05-07T02:35:13;9.60;99.90
15564;DHT22;7883;52.554;13.364;2023-05-07T02:37:40;9.60;99.90
15564;DHT22;7883;52.554;13.364;2023-05-07T02:40:10;9.40;99.90
15564;DHT22;7883;52.554;13.364;2023-05-07T02:42:37;9.40;99.90
15564;DHT22;7883;52.554;13.364;2023-05-07T02:45:07;9.60;99.90
15564;DHT22;7883;52.554;13.364;2023-05-07T02:47:34;9.40;99.90
15564;DHT22;7883;52.554;13.364;2023-05-07T02:50:03;9.50;99.90
15564;DHT22;7883;52.554;13.364;2023-05-07T02:52:30;9.50;99.90
15564;DHT22;7883;52.554;13.364;2023-05-07T02:54:57;9.50;99.90
15564;DHT22;7883;52.554;13.364;2023-05-07T02:57:24;9.70;99.90
15564;DHT22;7883;52.554;13.364;2023-05-07T02:59:51;9.70;99.90
15564;DHT22;7883;52.554;13.364;2023-05-07T03:02:19;9.80;99.90
15564;DHT22;7883;52.554;13.364;2023-05-07T03:04:49;9.70;99.90
15564;DHT22;7883;52.554;13.364;2023-05-07T03:07:16;9.60;99.90
15564;DHT22;7883;52.554;13.364;2023-05-07T03:09:43;9.60;99.90
15564;DHT22;7883;52.554;13.364;2023-05-07T03:12:11;9.50;99.90
15564;DHT22;7883;52.554;13.364;2023-05-07T03:14:38;9.60;99.90
15564;DHT22;7883;52.554;13.364;2023-05-07T03:17:05;9.50;99.90
15564;DHT22;7883;52.554;13.364;2023-05-07T03:19:33;9.60;99.90
15564;DHT22;7883;52.554;13.364;2023-05-07T03:22:00;9.70;99.90
15564;DHT22;7883;52.554;13.364;2023-05-07T03:24:27;9.60;99.90
15564;DHT22;7883;52.554;13.364;2023-05-07T03:26:54;9.50;99.90
15564;DHT22;7883;52.554;13.364;2023-05-07T03:29:23;9.60;99.90
15564;DHT22;7883;52.554;13.364;2023-05-07T03:31:50;9.70;99.90
15564;DHT22;7883;52.554;13.364;2023-05-07T03:34:17;9.80;99.90
15564;DHT22;7883;52.554;13.364;2023-05-07T03:36:49;9.70;99.90
15564;DHT22;7883;52.554;13.364;2023-05-07T03:39:15;9.60;99.90
15564;DHT22;7883;52.554;13.364;2023-05-07T03:41:43;9.60;99.90
15564;DHT22;7883;52.554;13.364;2023-05-07T03:44:10;9.60;99.90
15564;DHT22;7883;52.554;13.364;2023-05-07T03:46:36;9.60;99.90
15564;DHT22;7883;52.554;13.364;2023-05-07T03:49:04;9.50;99.90
15564;DHT22;7883;52.554;13.364;2023-05-07T03:51:30;9.40;99.90
15564;DHT22;7883;52.554;13.364;2023-05-07T03:53:59;9.50;99.90
15564;DHT22;7883;52.554;13.364;2023-05-07T03:56:26;9.50;99.90
15564;DHT22;7883;52.554;13.364;2023-05-07T03:58:53;9.60;99.90
15564;DHT22;7883;52.554;13.364;2023-05-07T04:01:20;9.80;99.90
15564;DHT22;7883;52.554;13.364;2023-05-07T04:03:47;9.80;99.90
15564;DHT22;7883;52.554;13.364;2023-05-07T04:06:15;9.40;99.90
15564;DHT22;7883;52.554;13.364;2023-05-07T04:08:43;9.30;99.90
15564;DHT22;7883;52.554;13.364;2023-05-07T04:11:11;9.50;99.90
15564;DHT22;7883;52.554;13.364;2023-05-07T04:13:39;9.70;99.90
15564;DHT22;7883;52.554;13.364;2023-05-07T04:16:07;9.60;99.90
15564;DHT22;7883;52.554;13.364;2023-05-07T04:18:34;9.70;99.90
15564;DHT22;7883;52.554;13.364;2023-05-07T04:21:01;9.80;99.90
15564;DHT22;7883;52.554;13.364;2023-05-07T04:23:28;9.70;99.90
15564;DHT22;7883;52.554;13.364;2023-05-07T04:25:55;9.60;99.90
15564;DHT22;7883;52.554;13.364;2023-05-07T04:28:24;9.70;99.90
15564;DHT22;7883;52.554;13.364;2023-05-07T04:30:52;9.70;99.90
15564;DHT22;7883;52.554;13.364;2023-05-07T04:33:19;9.60;99.90
15564;DHT22;7883;52.554;13.364;2023-05-07T04:35:46;9.60;99.90
15564;DHT22;7883;52.554;13.364;2023-05-07T04:38:13;9.70;99.90
15564;DHT22;7883;52.554;13.364;2023-05-07T04:40:40;9.80;99.90
15564;DHT22;7883;52.554;13.364;2023-05-07T04:43:08;9.70;99.90
15564;DHT22;7883;52.554;13.364;2023-05-07T04:45:36;9.60;99.90
15564;DHT22;7883;52.554;13.364;2023-05-07T04:48:06;9.70;99.90
15564;DHT22;7883;52.554;13.364;2023-05-07T04:50:33;9.50;99.90
15564;DHT22;7883;52.554;13.364;2023-05-07T04:53:00;9.40;99.90
15564;DHT22;7883;52.554;13.364;2023-05-07T04:55:27;9.50;99.90
15564;DHT22;7883;52.554;13.364;2023-05-07T04:57:54;9.50;99.90
15564;DHT22;7883;52.554;13.364;2023-05-07T05:00:21;9.50;99.90
15564;DHT22;7883;52.554;13.364;2023-05-07T05:02:49;9.40;99.90
15564;DHT22;7883;52.554;13.364;2023-05-07T05:05:16;9.60;99.90
15564;DHT22;7883;52.554;13.364;2023-05-07T05:07:44;9.70;99.90
15564;DHT22;7883;52.554;13.364;2023-05-07T05:10:11;9.90;99.90
15564;DHT22;7883;52.554;13.364;2023-05-07T05:12:37;9.80;99.90
15564;DHT22;7883;52.554;13.364;2023-05-07T05:15:09;9.80;99.90
15564;DHT22;7883;52.554;13.364;2023-05-07T05:17:35;9.70;99.90
15564;DHT22;7883;52.554;13.364;2023-05-07T05:20:05;9.90;99.90
15564;DHT22;7883;52.554;13.364;2023-05-07T05:22:32;10.50;99.90
15564;DHT22;7883;52.554;13.364;2023-05-07T05:24:59;10.70;99.90
15564;DHT22;7883;52.554;13.364;2023-05-07T05:27:27;10.70;99.90
15564;DHT22;7883;52.554;13.364;2023-05-07T05:29:53;10.50;99.90
15564;DHT22;7883;52.554;13.364;2023-05-07T05:32:21;10.70;99.90
15564;DHT22;7883;52.554;13.364;2023-05-07T05:34:48;11.00;99.90
15564;DHT22;7883;52.554;13.364;2023-05-07T05:37:16;11.10;99.90
15564;DHT22;7883;52.554;13.364;2023-05-07T05:39:43;11.00;99.90
15564;DHT22;7883;52.554;13.364;2023-05-07T05:42:10;10.60;99.90
15564;DHT22;7883;52.554;13.364;2023-05-07T05:44:37;10.50;99.90
15564;DHT22;7883;52.554;13.364;2023-05-07T05:47:04;10.50;99.90
15564;DHT22;7883;52.554;13.364;2023-05-07T05:49:31;10.60;99.90
15564;DHT22;7883;52.554;13.364;2023-05-07T05:51:58;10.40;99.90
15564;DHT22;7883;52.554;13.364;2023-05-07T05:54:26;10.40;99.90
15564;DHT22;7883;52.554;13.364;2023-05-07T05:56:53;10.70;99.90
15564;DHT22;7883;52.554;13.364;2023-05-07T05:59:20;10.80;99.90
15564;DHT22;7883;52.554;13.364;2023-05-07T06:01:47;10.70;99.90
15564;DHT22;7883;52.554;13.364;2023-05-07T06:04:14;11.00;99.90
15564;DHT22;7883;52.554;13.364;2023-05-07T06:06:41;10.90;99.90
15564;DHT22;7883;52.554;13.364;2023-05-07T06:09:08;10.90;99.90
15564;DHT22;7883;52.554;13.364;2023-05-07T06:11:37;11.00;99.90
15564;DHT22;7883;52.554;13.364;2023-05-07T06:14:05;11.00;99.90
15564;DHT22;7883;52.554;13.364;2023-05-07T06:16:32;10.90;99.90
15564;DHT22;7883;52.554;13.364;2023-05-07T06:18:59;11.00;99.90
15564;DHT22;7883;52.554;13.364;2023-05-07T06:21:26;11.20;99.90
15564;DHT22;7883;52.554;13.364;2023-05-07T06:23:53;11.30;99.90
15564;DHT22;7883;52.554;13.364;2023-05-07T06:26:20;11.10;99.90
15564;DHT22;7883;52.554;13.364;2023-05-07T06:28:48;11.30;99.90
15564;DHT22;7883;52.554;13.364;2023-05-07T06:31:17;11.40;99.90
15564;DHT22;7883;52.554;13.364;2023-05-07T06:33:46;11.30;99.90
15564;DHT22;7883;52.554;13.364;2023-05-07T06:36:13;11.40;99.90
15564;DHT22;7883;52.554;13.364;2023-05-07T06:38:40;11.30;99.90
15564;DHT22;7883;52.554;13.364;2023-05-07T06:41:07;11.30;99.90
15564;DHT22;7883;52.554;13.364;2023-05-07T06:43:35;11.50;99.90
15564;DHT22;7883;52.554;13.364;2023-05-07T06:46:03;11.40;99.90
15564;DHT22;7883;52.554;13.364;2023-05-07T06:48:30;11.30;99.90
15564;DHT22;7883;52.554;13.364;2023-05-07T06:50:57;11.20;99.90
15564;DHT22;7883;52.554;13.364;2023-05-07T06:53:24;11.20;99.90
15564;DHT22;7883;52.554;13.364;2023-05-07T06:55:51;11.30;99.90
15564;DHT22;7883;52.554;13.364;2023-05-07T06:58:18;11.20;99.90
15564;DHT22;7883;52.554;13.364;2023-05-07T07:00:45;11.20;99.90
15564;DHT22;7883;52.554;13.364;2023-05-07T07:03:13;11.00;99.90
15564;DHT22;7883;52.554;13.364;2023-05-07T07:05:41;11.30;99.90
15564;DHT22;7883;52.554;13.364;2023-05-07T07:08:08;11.70;99.90
15564;DHT22;7883;52.554;13.364;2023-05-07T07:10:35;11.70;99.90
15564;DHT22;7883;52.554;13.364;2023-05-07T07:13:02;11.50;99.90
15564;DHT22;7883;52.554;13.364;2023-05-07T07:15:29;11.70;99.90
15564;DHT22;7883;52.554;13.364;2023-05-07T07:17:55;11.80;99.90
15564;DHT22;7883;52.554;13.364;2023-05-07T07:20:24;11.90;99.90
15564;DHT22;7883;52.554;13.364;2023-05-07T07:22:51;11.60;99.90
15564;DHT22;7883;52.554;13.364;2023-05-07T07:25:18;11.70;99.90
15564;DHT22;7883;52.554;13.364;2023-05-07T07:27:44;11.80;99.90
15564;DHT22;7883;52.554;13.364;2023-05-07T07:30:11;11.70;99.90
15564;DHT22;7883;52.554;13.364;2023-05-07T07:32:38;11.70;99.90
15564;DHT22;7883;52.554;13.364;2023-05-07T07:35:06;11.70;99.90
15564;DHT22;7883;52.554;13.364;2023-05-07T07:37:35;12.00;99.90
15564;DHT22;7883;52.554;13.364;2023-05-07T07:40:02;12.00;99.90
15564;DHT22;7883;52.554;13.364;2023-05-07T07:42:29;12.00;99.90
15564;DHT22;7883;52.554;13.364;2023-05-07T07:44:56;12.00;99.90
15564;DHT22;7883;52.554;13.364;2023-05-07T07:47:24;12.10;99.90
15564;DHT22;7883;52.554;13.364;2023-05-07T07:49:51;12.10;99.90
15564;DHT22;7883;52.554;13.364;2023-05-07T07:52:18;12.00;99.90
15564;DHT22;7883;52.554;13.364;2023-05-07T07:54:46;12.00;99.90
15564;DHT22;7883;52.554;13.364;2023-05-07T07:57:13;12.20;99.90
15564;DHT22;7883;52.554;13.364;2023-05-07T07:59:40;12.30;99.90
15564;DHT22;7883;52.554;13.364;2023-05-07T08:02:09;12.40;99.90
15564;DHT22;7883;52.554;13.364;2023-05-07T08:04:36;12.10;99.90
15564;DHT22;7883;52.554;13.364;2023-05-07T08:07:04;12.10;99.90
15564;DHT22;7883;52.554;13.364;2023-05-07T08:09:31;12.10;99.90
15564;DHT22;7883;52.554;13.364;2023-05-07T08:12:00;12.20;99.90
15564;DHT22;7883;52.554;13.364;2023-05-07T08:14:28;12.20;99.90
15564;DHT22;7883;52.554;13.364;2023-05-07T08:16:55;12.20;99.90
15564;DHT22;7883;52.554;13.364;2023-05-07T08:19:22;12.30;99.90
15564;DHT22;7883;52.554;13.364;2023-05-07T08:21:49;12.30;99.90
15564;DHT22;7883;52.554;13.364;2023-05-07T08:24:16;12.30;99.90
15564;DHT22;7883;52.554;13.364;2023-05-07T08:26:43;12.40;99.90
15564;DHT22;7883;52.554;13.364;2023-05-07T08:29:12;12.40;99.90
15564;DHT22;7883;52.554;13.364;2023-05-07T08:31:40;12.60;99.90
15564;DHT22;7883;52.554;13.364;2023-05-07T08:34:07;12.60;99.90
15564;DHT22;7883;52.554;13.364;2023-05-07T08:36:34;12.50;99.90
15564;DHT22;7883;52.554;13.364;2023-05-07T08:39:01;12.60;99.90
15564;DHT22;7883;52.554;13.364;2023-05-07T08:41:28;12.80;99.90
15564;DHT22;7883;52.554;13.364;2023-05-07T08:43:58;13.00;99.90
15564;DHT22;7883;52.554;13.364;2023-05-07T08:46:30;13.20;99.90
15564;DHT22;7883;52.554;13.364;2023-05-07T08:48:58;13.10;99.90
15564;DHT22;7883;52.554;13.364;2023-05-07T08:51:25;13.00;99.90
15564;DHT22;7883;52.554;13.364;2023-05-07T08:53:52;13.00;99.90
15564;DHT22;7883;52.554;13.364;2023-05-07T08:56:19;13.10;99.90
15564;DHT22;7883;52.554;13.364;2023-05-07T08:58:47;13.10;99.90
15564;DHT22;7883;52.554;13.364;2023-05-07T09:01:16;13.30;99.90
15564;DHT22;7883;52.554;13.364;2023-05-07T09:03:46;13.60;99.90
15564;DHT22;7883;52.554;13.364;2023-05-07T09:06:15;13.80;99.90
15564;DHT22;7883;52.554;13.364;2023-05-07T09:08:49;13.90;99.90
15564;DHT22;7883;52.554;13.364;2023-05-07T09:11:20;14.00;99.90
15564;DHT22;7883;52.554;13.364;2023-05-07T09:13:48;13.80;99.90
15564;DHT22;7883;52.554;13.364;2023-05-07T09:16:15;13.80;99.90
15564;DHT22;7883;52.554;13.364;2023-05-07T09:18:43;13.90;99.90
15564;DHT22;7883;52.554;13.364;2023-05-07T09:21:15;13.90;99.90
15564;DHT22;7883;52.554;13.364;2023-05-07T09:23:42;13.80;99.90
15564;DHT22;7883;52.554;13.364;2023-05-07T09:26:09;13.70;99.90
15564;DHT22;7883;52.554;13.364;2023-05-07T09:28:40;13.50;99.90
15564;DHT22;7883;52.554;13.364;2023-05-07T09:31:08;13.70;99.90
15564;DHT22;7883;52.554;13.364;2023-05-07T09:33:36;13.80;99.90
15564;DHT22;7883;52.554;13.364;2023-05-07T09:36:04;13.70;99.90
15564;DHT22;7883;52.554;13.364;2023-05-07T09:38:33;13.70;99.90
15564;DHT22;7883;52.554;13.364;2023-05-07T09:41:04;13.50;99.90
15564;DHT22;7883;52.554;13.364;2023-05-07T09:43:32;13.40;99.90
15564;DHT22;7883;52.554;13.364;2023-05-07T09:46:03;13.40;99.90
15564;DHT22;7883;52.554;13.364;2023-05-07T09:48:38;13.50;99.90
15564;DHT22;7883;52.554;13.364;2023-05-07T09:51:25;13.80;99.90
15564;DHT22;7883;52.554;13.364;2023-05-07T09:53:57;14.10;99.90
15564;DHT22;7883;52.554;13.364;2023-05-07T09:56:27;14.40;99.90
15564;DHT22;7883;52.554;13.364;2023-05-07T09:58:57;14.70;99.90
15564;DHT22;7883;52.554;13.364;2023-05-07T10:01:25;14.70;99.90
15564;DHT22;7883;52.554;13.364;2023-05-07T10:03:53;14.60;99.90
15564;DHT22;7883;52.554;13.364;2023-05-07T10:06:23;14.50;99.90
15564;DHT22;7883;52.554;13.364;2023-05-07T10:08:51;14.50;99.90
15564;DHT22;7883;52.554;13.364;2023-05-07T10:11:19;14.60;99.90
15564;DHT22;7883;52.554;13.364;2023-05-07T10:13:48;14.70;99.90
15564;DHT22;7883;52.554;13.364;2023-05-07T10:16:15;15.00;99.90
15564;DHT22;7883;52.554;13.364;2023-05-07T10:18:43;15.00;99.90
15564;DHT22;7883;52.554;13.364;2023-05-07T10:21:13;14.90;99.90
15564;DHT22;7883;52.554;13.364;2023-05-07T10:23:45;15.00;99.90
15564;DHT22;7883;52.554;13.364;2023-05-07T10:26:13;15.00;99.90
15564;DHT22;7883;52.554;13.364;2023-05-07T10:28:45;15.20;99.90
15564;DHT22;7883;52.554;13.364;2023-05-07T10:31:33;15.20;99.90
15564;DHT22;7883;52.554;13.364;2023-05-07T10:34:08;15.00;99.90
15564;DHT22;7883;52.554;13.364;2023-05-07T10:36:36;14.90;99.90
15564;DHT22;7883;52.554;13.364;2023-05-07T10:39:05;15.00;99.90
15564;DHT22;7883;52.554;13.364;2023-05-07T10:41:32;15.00;99.90
15564;DHT22;7883;52.554;13.364;2023-05-07T10:44:01;15.40;99.90
15564;DHT22;7883;52.554;13.364;2023-05-07T10:46:28;15.30;99.90
15564;DHT22;7883;52.554;13.364;2023-05-07T10:49:09;15.40;99.90
15564;DHT22;7883;52.554;13.364;2023-05-07T10:51:37;15.90;99.90
15564;DHT22;7883;52.554;13.364;2023-05-07T10:54:21;15.90;99.90
15564;DHT22;7883;52.554;13.364;2023-05-07T10:56:48;15.50;99.90
15564;DHT22;7883;52.554;13.364;2023-05-07T10:59:41;15.30;99.90
15564;DHT22;7883;52.554;13.364;2023-05-07T11:02:09;15.20;99.90
15564;DHT22;7883;52.554;13.364;2023-05-07T11:04:39;15.20;99.90
15564;DHT22;7883;52.554;13.364;2023-05-07T11:07:28;15.10;99.90
15564;DHT22;7883;52.554;13.364;2023-05-07T11:10:00;15.30;99.90
15564;DHT22;7883;52.554;13.364;2023-05-07T11:12:51;15.60;99.90
15564;DHT22;7883;52.554;13.364;2023-05-07T11:15:45;15.90;99.90
15564;DHT22;7883;52.554;13.364;2023-05-07T11:18:13;15.60;99.90
15564;DHT22;7883;52.554;13.364;2023-05-07T11:20:56;15.20;99.90
15564;DHT22;7883;52.554;13.364;2023-05-07T11:26:45;15.10;99.90
15564;DHT22;7883;52.554;13.364;2023-05-07T11:29:13;15.30;99.90
15564;DHT22;7883;52.554;13.364;2023-05-07T11:31:42;15.50;99.90
15564;DHT22;7883;52.554;13.364;2023-05-07T11:34:09;15.50;99.90
15564;DHT22;7883;52.554;13.364;2023-05-07T11:36:42;15.50;99.90
15564;DHT22;7883;52.554;13.364;2023-05-07T11:39:27;15.50;99.90
15564;DHT22;7883;52.554;13.364;2023-05-07T11:41:54;15.60;99.90
15564;DHT22;7883;52.554;13.364;2023-05-07T11:44:21;15.80;99.90
15564;DHT22;7883;52.554;13.364;2023-05-07T11:46:50;16.10;99.90
15564;DHT22;7883;52.554;13.364;2023-05-07T11:49:17;16.20;99.90
15564;DHT22;7883;52.554;13.364;2023-05-07T11:51:44;16.10;99.90
15564;DHT22;7883;52.554;13.364;2023-05-07T11:54:15;16.00;99.90
15564;DHT22;7883;52.554;13.364;2023-05-07T11:56:44;16.20;99.90
15564;DHT22;7883;52.554;13.364;2023-05-07T11:59:17;16.30;99.90
15564;DHT22;7883;52.554;13.364;2023-05-07T12:01:46;16.50;99.90
15564;DHT22;7883;52.554;13.364;2023-05-07T12:04:18;16.60;99.90
15564;DHT22;7883;52.554;13.364;2023-05-07T12:06:46;16.70;99.90
15564;DHT22;7883;52.554;13.364;2023-05-07T12:09:16;16.70;99.90
15564;DHT22;7883;52.554;13.364;2023-05-07T12:11:46;16.70;99.90
15564;DHT22;7883;52.554;13.364;2023-05-07T12:14:12;16.60;99.90
15564;DHT22;7883;52.554;13.364;2023-05-07T12:16:41;16.70;99.90
15564;DHT22;7883;52.554;13.364;2023-05-07T12:19:08;16.60;99.90
15564;DHT22;7883;52.554;13.364;2023-05-07T12:21:39;16.50;99.90
15564;DHT22;7883;52.554;13.364;2023-05-07T12:24:08;16.60;99.90
15564;DHT22;7883;52.554;13.364;2023-05-07T12:26:37;16.60;99.90
15564;DHT22;7883;52.554;13.364;2023-05-07T12:29:06;16.50;99.90
15564;DHT22;7883;52.554;13.364;2023-05-07T12:31:33;16.40;99.90
15564;DHT22;7883;52.554;13.364;2023-05-07T12:34:00;16.40;99.90
15564;DHT22;7883;52.554;13.364;2023-05-07T12:36:36;16.30;99.90
15564;DHT22;7883;52.554;13.364;2023-05-07T12:39:06;16.10;99.90
15564;DHT22;7883;52.554;13.364;2023-05-07T12:41:43;16.10;99.90
15564;DHT22;7883;52.554;13.364;2023-05-07T12:44:19;16.20;99.90
15564;DHT22;7883;52.554;13.364;2023-05-07T12:46:46;16.20;99.90
15564;DHT22;7883;52.554;13.364;2023-05-07T12:49:13;16.20;99.90
15564;DHT22;7883;52.554;13.364;2023-05-07T12:51:40;16.00;99.90
15564;DHT22;7883;52.554;13.364;2023-05-07T12:54:08;15.90;99.90
15564;DHT22;7883;52.554;13.364;2023-05-07T12:56:36;15.70;99.90
15564;DHT22;7883;52.554;13.364;2023-05-07T12:59:03;15.60;99.90
15564;DHT22;7883;52.554;13.364;2023-05-07T13:01:30;15.70;99.90
15564;DHT22;7883;52.554;13.364;2023-05-07T13:04:01;15.90;99.90
15564;DHT22;7883;52.554;13.364;2023-05-07T13:06:30;16.20;99.90
15564;DHT22;7883;52.554;13.364;2023-05-07T13:08:57;16.30;99.90
15564;DHT22;7883;52.554;13.364;2023-05-07T13:11:25;16.20;99.90
15564;DHT22;7883;52.554;13.364;2023-05-07T13:13:52;16.20;99.90
15564;DHT22;7883;52.554;13.364;2023-05-07T13:16:19;16.20;99.90
15564;DHT22;7883;52.554;13.364;2023-05-07T13:18:45;16.30;99.90
15564;DHT22;7883;52.554;13.364;2023-05-07T13:21:12;16.30;99.90
15564;DHT22;7883;52.554;13.364;2023-05-07T13:23:39;16.40;99.90
15564;DHT22;7883;52.554;13.364;2023-05-07T13:26:06;16.30;99.90
15564;DHT22;7883;52.554;13.364;2023-05-07T13:28:34;16.10;99.90
15564;DHT22;7883;52.554;13.364;2023-05-07T13:31:01;16.00;99.90
15564;DHT22;7883;52.554;13.364;2023-05-07T13:33:28;15.90;99.90
15564;DHT22;7883;52.554;13.364;2023-05-07T13:35:55;15.90;99.90
15564;DHT22;7883;52.554;13.364;2023-05-07T13:38:23;15.90;99.90
15564;DHT22;7883;52.554;13.364;2023-05-07T13:40:50;15.90;99.90
15564;DHT22;7883;52.554;13.364;2023-05-07T13:43:17;16.00;99.90
15564;DHT22;7883;52.554;13.364;2023-05-07T13:45:45;16.10;99.90
15564;DHT22;7883;52.554;13.364;2023-05-07T13:48:12;16.10;99.90
15564;DHT22;7883;52.554;13.364;2023-05-07T13:50:39;16.30;99.90
15564;DHT22;7883;52.554;13.364;2023-05-07T13:53:07;16.00;99.90
15564;DHT22;7883;52.554;13.364;2023-05-07T13:55:35;16.00;99.90
15564;DHT22;7883;52.554;13.364;2023-05-07T13:58:02;15.90;99.90
15564;DHT22;7883;52.554;13.364;2023-05-07T14:00:29;16.10;99.90
15564;DHT22;7883;52.554;13.364;2023-05-07T14:02:58;16.20;99.90
15564;DHT22;7883;52.554;13.364;2023-05-07T14:05:25;16.30;99.90
15564;DHT22;7883;52.554;13.364;2023-05-07T14:07:54;16.30;99.90
15564;DHT22;7883;52.554;13.364;2023-05-07T14:10:21;16.30;99.90
15564;DHT22;7883;52.554;13.364;2023-05-07T14:12:47;16.30;99.90
15564;DHT22;7883;52.554;13.364;2023-05-07T14:15:15;16.30;99.90
15564;DHT22;7883;52.554;13.364;2023-05-07T14:17:42;16.30;99.90
15564;DHT22;7883;52.554;13.364;2023-05-07T14:20:11;16.40;99.90
15564;DHT22;7883;52.554;13.364;2023-05-07T14:22:38;16.50;99.90
15564;DHT22;7883;52.554;13.364;2023-05-07T14:25:06;16.60;99.90
15564;DHT22;7883;52.554;13.364;2023-05-07T14:27:34;16.80;99.90
15564;DHT22;7883;52.554;13.364;2023-05-07T14:30:02;16.80;99.90
15564;DHT22;7883;52.554;13.364;2023-05-07T14:32:29;16.80;99.90
15564;DHT22;7883;52.554;13.364;2023-05-07T14:34:56;17.00;99.90
15564;DHT22;7883;52.554;13.364;2023-05-07T14:37:24;17.00;99.90
15564;DHT22;7883;52.554;13.364;2023-05-07T14:39:51;17.00;99.90
15564;DHT22;7883;52.554;13.364;2023-05-07T14:42:18;17.10;99.90
15564;DHT22;7883;52.554;13.364;2023-05-07T14:44:45;17.30;99.90
15564;DHT22;7883;52.554;13.364;2023-05-07T14:47:13;17.20;99.90
15564;DHT22;7883;52.554;13.364;2023-05-07T14:49:41;17.20;99.90
15564;DHT22;7883;52.554;13.364;2023-05-07T14:52:11;17.30;99.90
15564;DHT22;7883;52.554;13.364;2023-05-07T14:54:39;17.30;99.90
15564;DHT22;7883;52.554;13.364;2023-05-07T14:57:08;17.30;99.90
15564;DHT22;7883;52.554;13.364;2023-05-07T14:59:36;17.00;99.90
15564;DHT22;7883;52.554;13.364;2023-05-07T15:02:04;17.00;99.90
15564;DHT22;7883;52.554;13.364;2023-05-07T15:04:32;16.80;99.90
15564;DHT22;7883;52.554;13.364;2023-05-07T15:06:59;16.80;99.90
15564;DHT22;7883;52.554;13.364;2023-05-07T15:09:26;16.70;99.90
15564;DHT22;7883;52.554;13.364;2023-05-07T15:11:54;16.70;99.90
15564;DHT22;7883;52.554;13.364;2023-05-07T15:14:21;16.80;99.90
15564;DHT22;7883;52.554;13.364;2023-05-07T15:16:49;16.70;99.90
15564;DHT22;7883;52.554;13.364;2023-05-07T15:19:16;16.60;99.90
15564;DHT22;7883;52.554;13.364;2023-05-07T15:21:43;16.50;99.90
15564;DHT22;7883;52.554;13.364;2023-05-07T15:24:10;16.50;99.90
15564;DHT22;7883;52.554;13.364;2023-05-07T15:26:38;16.50;99.90
15564;DHT22;7883;52.554;13.364;2023-05-07T15:29:06;16.50;99.90
15564;DHT22;7883;52.554;13.364;2023-05-07T15:31:35;16.40;99.90
15564;DHT22;7883;52.554;13.364;2023-05-07T15:34:05;16.40;99.90
15564;DHT22;7883;52.554;13.364;2023-05-07T15:36:31;16.40;99.90
15564;DHT22;7883;52.554;13.364;2023-05-07T15:38:58;16.50;99.90
15564;DHT22;7883;52.554;13.364;2023-05-07T15:41:27;16.50;99.90
15564;DHT22;7883;52.554;13.364;2023-05-07T15:43:54;16.50;99.90
15564;DHT22;7883;52.554;13.364;2023-05-07T15:46:24;16.60;99.90